Time;durP1;ratioP1;P1;durP2;ratioP2;P2;SDS_P1;SDS_P2;PMS_P1;PMS_P2;Temp;Humidity;BMP_temperature;BMP_pressure;BME280_temperature;BME280_humidity;BME280_pressure;Samples;Min_cycle;Max_cycle;Signal;HPM_P1;HPM_P2
2023/03/16 00:00:51;;;;;;;5.00;4.03;;;;;3.30;98846.00;;;;5078116;28;20045;-60
2023/03/16 00:03:20;;;;;;;6.18;4.45;;;;;3.30;98850.00;;;;5077339;28;20048;-59
2023/03/16 00:05:48;;;;;;;6.28;4.55;;;;;3.20;98839.00;;;;5078584;28;20515;-59
2023/03/16 00:08:16;;;;;;;6.88;4.30;;;;;3.20;98849.00;;;;5078394;28;20068;-60
2023/03/16 00:10:45;;;;;;;7.80;4.60;;;;;3.20;98845.00;;;;5078112;28;20052;-59
2023/03/16 00:13:16;;;;;;;5.72;4.30;;;;;3.20;98843.00;;;;5078680;28;20047;-60
2023/03/16 00:16:03;;;;;;;8.23;4.95;;;;;3.10;98854.00;;;;5078434;28;20145;-60
2023/03/16 00:18:30;;;;;;;6.03;4.13;;;;;3.10;98849.00;;;;5078394;28;20045;-59
2023/03/16 00:20:58;;;;;;;5.43;4.47;;;;;3.10;98853.00;;;;5078058;28;20400;-60
2023/03/16 00:23:28;;;;;;;5.28;4.18;;;;;3.10;98851.00;;;;5078637;28;20044;-60
2023/03/16 00:25:58;;;;;;;7.55;4.35;;;;;3.00;98847.00;;;;5078202;28;20040;-57
2023/03/16 00:28:26;;;;;;;7.00;4.50;;;;;2.80;98851.00;;;;5079388;28;20040;-60
2023/03/16 00:30:57;;;;;;;5.72;4.30;;;;;2.80;98848.00;;;;5077882;28;20072;-57
2023/03/16 00:33:25;;;;;;;6.60;3.92;;;;;2.90;98856.00;;;;5078252;28;20041;-59
2023/03/16 00:36:00;;;;;;;4.97;3.88;;;;;2.90;98851.00;;;;5076942;28;20044;-59
2023/03/16 00:38:30;;;;;;;5.45;4.13;;;;;2.80;98855.00;;;;5077357;28;20079;-60
2023/03/16 00:40:57;;;;;;;6.82;4.95;;;;;2.90;98846.00;;;;5076187;28;20049;-59
2023/03/16 00:43:26;;;;;;;4.28;3.78;;;;;2.90;98842.00;;;;5077117;28;20053;-60
2023/03/16 00:46:05;;;;;;;6.10;4.07;;;;;2.90;98852.00;;;;5075431;28;20075;-59
2023/03/16 00:48:36;;;;;;;7.00;4.75;;;;;2.80;98846.00;;;;5073709;28;20082;-59
2023/03/16 00:51:06;;;;;;;4.55;3.83;;;;;2.70;98853.00;;;;5073270;28;20060;-59
2023/03/16 00:53:33;;;;;;;5.85;4.68;;;;;2.70;98838.00;;;;5074971;28;20447;-59
2023/03/16 00:56:03;;;;;;;9.77;4.57;;;;;2.70;98832.00;;;;5073645;28;20036;-59
2023/03/16 00:58:34;;;;;;;5.70;4.32;;;;;2.80;98831.00;;;;5073588;28;20078;-59
2023/03/16 01:01:05;;;;;;;5.75;4.53;;;;;2.90;98821.00;;;;5073184;28;20128;-59
2023/03/16 01:03:33;;;;;;;10.52;4.68;;;;;2.90;98818.00;;;;5074799;28;20072;-59
2023/03/16 01:06:09;;;;;;;5.70;3.85;;;;;2.80;98822.00;;;;5073460;28;20044;-59
2023/03/16 01:08:36;;;;;;;5.43;3.72;;;;;2.90;98826.00;;;;5083535;28;20120;-59
2023/03/16 01:11:05;;;;;;;8.60;5.80;;;;;2.80;98832.00;;;;5087897;28;20053;-59
2023/03/16 01:13:31;;;;;;;8.50;5.05;;;;;2.60;98830.00;;;;5078787;28;20055;-59
2023/03/16 01:15:59;;;;;;;7.82;4.82;;;;;2.40;98833.00;;;;5074593;28;20086;-59
2023/03/16 01:18:27;;;;;;;11.00;5.50;;;;;2.40;98835.00;;;;5074449;28;20478;-59
2023/03/16 01:20:53;;;;;;;14.13;7.65;;;;;2.40;98828.00;;;;5072529;28;20440;-59
2023/03/16 01:23:21;;;;;;;12.23;6.88;;;;;2.40;98821.00;;;;5074392;28;20493;-59
2023/03/16 01:25:53;;;;;;;9.15;5.72;;;;;2.50;98814.00;;;;5073104;28;20714;-59
2023/03/16 01:28:24;;;;;;;7.25;4.63;;;;;2.70;98825.00;;;;5075402;28;20501;-59
2023/03/16 01:30:56;;;;;;;7.15;4.57;;;;;2.80;98822.00;;;;5072513;28;20048;-59
2023/03/16 01:33:25;;;;;;;6.22;4.40;;;;;2.70;98811.00;;;;5073077;28;20041;-59
2023/03/16 01:36:06;;;;;;;8.40;4.88;;;;;2.50;98812.00;;;;5072866;28;20044;-60
2023/03/16 01:38:42;;;;;;;5.53;4.20;;;;;2.50;98823.00;;;;5072642;28;20056;-60
2023/03/16 01:41:09;;;;;;;8.30;4.43;;;;;2.40;98810.00;;;;5073717;28;20119;-58
2023/03/16 01:43:38;;;;;;;7.13;4.97;;;;;2.60;98814.00;;;;5073086;28;20086;-59
2023/03/16 01:46:05;;;;;;;4.95;4.43;;;;;2.60;98806.00;;;;5072529;28;20041;-59
2023/03/16 01:48:44;;;;;;;5.78;4.43;;;;;2.60;98809.00;;;;5072858;28;20049;-59
2023/03/16 01:51:19;;;;;;;8.32;4.63;;;;;2.40;98800.00;;;;5072000;28;20106;-59
2023/03/16 01:53:51;;;;;;;6.90;4.03;;;;;2.40;98803.00;;;;5074003;28;20122;-59
2023/03/16 01:56:24;;;;;;;9.00;4.57;;;;;2.40;98787.00;;;;5072525;28;20043;-59
2023/03/16 01:58:57;;;;;;;5.20;4.13;;;;;2.40;98787.00;;;;5071840;28;20078;-59
2023/03/16 02:01:27;;;;;;;6.32;4.78;;;;;2.30;98785.00;;;;5071432;28;20436;-59
2023/03/16 02:04:06;;;;;;;6.72;4.40;;;;;2.20;98780.00;;;;5072170;28;20044;-59
2023/03/16 02:06:36;;;;;;;5.85;4.40;;;;;2.10;98777.00;;;;5056094;28;20044;-59
2023/03/16 02:09:04;;;;;;;6.32;4.85;;;;;2.10;98785.00;;;;5074095;28;20497;-62
2023/03/16 02:11:31;;;;;;;5.95;4.60;;;;;2.10;98776.00;;;;5076968;28;20072;-62
2023/03/16 02:14:09;;;;;;;6.22;4.82;;;;;2.30;98767.00;;;;5076910;28;20048;-62
2023/03/16 02:16:35;;;;;;;6.80;4.75;;;;;2.30;98760.00;;;;5059866;28;20496;-62
2023/03/16 02:19:03;;;;;;;6.88;5.05;;;;;2.20;98768.00;;;;5075800;28;20052;-62
2023/03/16 02:21:53;;;;;;;5.85;4.75;;;;;2.20;98760.00;;;;5076220;28;20088;-62
2023/03/16 02:24:20;;;;;;;5.55;4.20;;;;;2.20;98758.00;;;;5076425;28;20489;-62
2023/03/16 02:27:00;;;;;;;5.93;4.20;;;;;2.20;98762.00;;;;5076678;28;20041;-61
2023/03/16 02:29:59;;;;;;;6.68;5.15;;;;;2.20;98762.00;;;;5077554;28;20455;-60
2023/03/16 02:32:32;;;;;;;8.25;5.53;;;;;2.20;98740.00;;;;5075111;28;20041;-57
2023/03/16 02:35:01;;;;;;;5.57;4.75;;;;;2.20;98743.00;;;;5071506;28;20098;-59
2023/03/16 02:37:28;;;;;;;8.15;5.38;;;;;2.30;98739.00;;;;5071406;28;20440;-58
2023/03/16 02:39:54;;;;;;;6.15;4.80;;;;;2.30;98738.00;;;;5070861;28;20040;-58
2023/03/16 02:42:25;;;;;;;5.97;5.30;;;;;2.20;98738.00;;;;5071413;28;20097;-58
2023/03/16 02:44:57;;;;;;;7.43;5.38;;;;;2.10;98730.00;;;;5071208;28;20071;-58
2023/03/16 02:47:42;;;;;;;7.85;5.47;;;;;2.10;98715.00;;;;5071574;28;20049;-58
2023/03/16 02:50:11;;;;;;;7.72;5.57;;;;;2.10;98705.00;;;;5072285;28;20493;-58
2023/03/16 02:52:38;;;;;;;8.48;5.25;;;;;2.20;98716.00;;;;5072715;28;20413;-60
2023/03/16 02:55:06;;;;;;;7.63;5.93;;;;;2.10;98711.00;;;;5071145;28;20143;-60
2023/03/16 02:57:33;;;;;;;8.23;6.13;;;;;2.10;98725.00;;;;5071218;28;20048;-58
2023/03/16 03:00:14;;;;;;;6.93;5.60;;;;;2.00;98707.00;;;;5070549;28;20059;-60
2023/03/16 03:02:44;;;;;;;7.50;5.60;;;;;2.00;98711.00;;;;5071135;28;20048;-60
2023/03/16 03:05:11;;;;;;;7.35;5.25;;;;;2.00;98708.00;;;;5070981;28;20105;-59
2023/03/16 03:07:38;;;;;;;8.70;5.85;;;;;2.00;98716.00;;;;5071023;28;20048;-59
2023/03/16 03:10:07;;;;;;;7.22;5.43;;;;;2.10;98714.00;;;;5070089;28;20049;-59
2023/03/16 03:12:33;;;;;;;7.68;5.15;;;;;2.10;98704.00;;;;5072586;28;20114;-59
2023/03/16 03:15:04;;;;;;;8.77;6.03;;;;;2.10;98700.00;;;;5071448;28;20080;-59
2023/03/16 03:17:37;;;;;;;6.68;5.40;;;;;2.10;98701.00;;;;5070960;28;20125;-59
2023/03/16 03:20:12;;;;;;;7.80;6.15;;;;;2.10;98699.00;;;;5070656;28;20507;-59
2023/03/16 03:22:39;;;;;;;6.93;6.10;;;;;2.30;98694.00;;;;5072183;28;20047;-59
2023/03/16 03:25:07;;;;;;;11.07;6.25;;;;;2.20;98702.00;;;;5073454;28;20037;-58
2023/03/16 03:27:34;;;;;;;6.70;5.20;;;;;2.20;98696.00;;;;5072139;28;20424;-62
2023/03/16 03:30:05;;;;;;;10.20;5.70;;;;;2.20;98691.00;;;;5070455;28;20049;-60
2023/03/16 03:32:31;;;;;;;7.38;4.95;;;;;2.30;98695.00;;;;5070918;28;20048;-59
2023/03/16 03:34:58;;;;;;;7.85;5.55;;;;;2.20;98694.00;;;;5070619;28;20040;-60
2023/03/16 03:37:24;;;;;;;6.57;5.00;;;;;2.10;98695.00;;;;5070438;28;20040;-59
2023/03/16 03:39:52;;;;;;;4.93;4.40;;;;;2.10;98688.00;;;;5069923;28;20076;-59
2023/03/16 03:42:19;;;;;;;6.05;4.63;;;;;2.10;98686.00;;;;5070514;28;20075;-59
2023/03/16 03:44:45;;;;;;;8.25;6.10;;;;;2.10;98684.00;;;;5070913;28;20044;-60
2023/03/16 03:47:12;;;;;;;6.80;5.72;;;;;2.10;98697.00;;;;5070324;28;20041;-59
2023/03/16 03:49:39;;;;;;;7.43;5.80;;;;;2.10;98688.00;;;;5069826;28;20505;-60
2023/03/16 03:52:05;;;;;;;8.63;5.97;;;;;2.20;98685.00;;;;5070528;28;20044;-59
2023/03/16 03:54:33;;;;;;;7.95;5.78;;;;;2.20;98691.00;;;;5070532;28;20143;-59
2023/03/16 03:57:07;;;;;;;7.82;6.07;;;;;2.30;98688.00;;;;5070440;28;20496;-59
2023/03/16 03:59:39;;;;;;;7.82;5.90;;;;;2.20;98690.00;;;;5071325;28;20056;-59
2023/03/16 04:02:24;;;;;;;11.18;6.55;;;;;2.20;98678.00;;;;5072052;28;20056;-59
2023/03/16 04:04:53;;;;;;;9.32;6.15;;;;;2.30;98681.00;;;;5071687;28;20052;-60
2023/03/16 04:07:22;;;;;;;9.30;6.07;;;;;2.20;98681.00;;;;5072073;28;20040;-60
2023/03/16 04:09:52;;;;;;;10.52;6.25;;;;;2.20;98680.00;;;;5069609;28;20044;-60
2023/03/16 04:12:25;;;;;;;9.98;5.70;;;;;2.20;98676.00;;;;5070542;28;20416;-59
2023/03/16 04:14:52;;;;;;;6.78;5.65;;;;;2.10;98684.00;;;;5070200;28;20095;-59
2023/03/16 04:17:21;;;;;;;7.57;5.97;;;;;2.10;98681.00;;;;5070228;28;20139;-60
2023/03/16 04:19:49;;;;;;;7.95;6.15;;;;;2.20;98685.00;;;;5069617;28;20504;-59
2023/03/16 04:22:16;;;;;;;8.07;6.35;;;;;2.20;98678.00;;;;5057322;28;20131;-61
2023/03/16 04:24:44;;;;;;;11.20;5.90;;;;;2.20;98681.00;;;;5073880;28;20127;-59
2023/03/16 04:27:12;;;;;;;8.82;6.03;;;;;2.20;98679.00;;;;5073790;28;20455;-60
2023/03/16 04:29:39;;;;;;;7.45;5.97;;;;;2.20;98675.00;;;;5073652;28;20386;-60
2023/03/16 04:32:06;;;;;;;8.38;6.35;;;;;2.20;98674.00;;;;5074993;28;20102;-59
2023/03/16 04:34:34;;;;;;;9.07;5.63;;;;;2.20;98670.00;;;;5074074;28;20135;-61
2023/03/16 04:37:03;;;;;;;8.55;6.28;;;;;2.20;98669.00;;;;5057608;28;20068;-59
2023/03/16 04:39:32;;;;;;;9.43;6.63;;;;;2.30;98670.00;;;;5073099;28;20072;-60
2023/03/16 04:42:00;;;;;;;11.35;6.80;;;;;2.20;98665.00;;;;5073794;28;20075;-61
2023/03/16 04:44:27;;;;;;;9.10;6.80;;;;;2.10;98670.00;;;;5073426;28;20489;-56
2023/03/16 04:46:53;;;;;;;8.60;6.75;;;;;2.00;98662.00;;;;5073157;28;20413;-59
2023/03/16 04:49:22;;;;;;;8.07;5.97;;;;;2.00;98650.00;;;;5073558;28;20044;-60
2023/03/16 04:51:49;;;;;;;9.25;6.50;;;;;2.00;98653.00;;;;5072988;28;20047;-61
2023/03/16 04:54:18;;;;;;;9.07;6.30;;;;;2.00;98649.00;;;;5073336;28;20052;-59
2023/03/16 04:56:44;;;;;;;9.00;6.15;;;;;2.00;98649.00;;;;5073464;28;20519;-60
2023/03/16 04:59:27;;;;;;;11.55;6.47;;;;;2.00;98652.00;;;;5072983;28;20185;-61
2023/03/16 05:02:03;;;;;;;10.32;7.07;;;;;2.00;98648.00;;;;5076546;28;20048;-61
2023/03/16 05:04:30;;;;;;;11.88;7.05;;;;;2.00;98654.00;;;;5077295;28;20509;-61
2023/03/16 05:06:57;;;;;;;8.93;6.32;;;;;2.00;98647.00;;;;5073738;28;20589;-59
2023/03/16 05:09:28;;;;;;;8.68;5.93;;;;;1.90;98640.00;;;;5072834;28;20513;-58
2023/03/16 05:11:55;;;;;;;10.70;6.80;;;;;1.90;98640.00;;;;5074212;28;20553;-59
2023/03/16 05:14:21;;;;;;;7.88;6.20;;;;;1.90;98639.00;;;;5073289;28;20075;-59
2023/03/16 05:17:13;;;;;;;8.10;5.97;;;;;2.00;98632.00;;;;5073064;28;20044;-59
2023/03/16 05:19:41;;;;;;;8.40;6.30;;;;;2.00;98640.00;;;;5056040;28;20044;-59
2023/03/16 05:22:08;;;;;;;9.95;7.07;;;;;2.00;98636.00;;;;5072820;28;20076;-58
2023/03/16 05:24:37;;;;;;;8.32;6.53;;;;;2.10;98635.00;;;;5072840;28;20492;-59
2023/03/16 05:27:04;;;;;;;13.93;9.00;;;;;2.10;98647.00;;;;5073945;28;20123;-58
2023/03/16 05:29:31;;;;;;;24.58;15.93;;;;;2.10;98640.00;;;;5072304;28;20040;-59
2023/03/16 05:31:58;;;;;;;16.45;10.90;;;;;2.20;98644.00;;;;5072475;28;20098;-59
2023/03/16 05:34:27;;;;;;;11.63;8.38;;;;;2.20;98649.00;;;;5073063;28;20048;-60
2023/03/16 05:36:54;;;;;;;12.88;8.15;;;;;2.20;98645.00;;;;5073971;28;20037;-59
2023/03/16 05:39:22;;;;;;;10.18;7.68;;;;;2.20;98645.00;;;;5073329;28;20046;-55
2023/03/16 05:41:49;;;;;;;9.77;6.53;;;;;2.10;98640.00;;;;5072517;28;20068;-60
2023/03/16 05:44:23;;;;;;;20.30;12.77;;;;;2.10;98643.00;;;;5074080;28;20068;-57
2023/03/16 05:47:00;;;;;;;9.85;7.20;;;;;2.20;98646.00;;;;5073105;28;20127;-59
2023/03/16 05:49:30;;;;;;;9.40;6.95;;;;;2.30;98646.00;;;;5073619;28;20440;-60
2023/03/16 05:51:58;;;;;;;10.13;7.30;;;;;2.30;98644.00;;;;5072389;28;20074;-60
2023/03/16 05:54:25;;;;;;;13.00;7.20;;;;;2.30;98649.00;;;;5072432;28;20055;-60
2023/03/16 05:56:53;;;;;;;8.90;6.63;;;;;2.30;98646.00;;;;5072565;28;20059;-60
2023/03/16 05:59:20;;;;;;;8.43;6.15;;;;;2.40;98647.00;;;;5072297;28;20640;-59
2023/03/16 06:01:51;;;;;;;8.70;6.85;;;;;2.50;98647.00;;;;5072192;28;20420;-60
2023/03/16 06:04:20;;;;;;;8.80;6.20;;;;;2.50;98642.00;;;;5072683;28;20062;-60
2023/03/16 06:06:47;;;;;;;10.13;6.40;;;;;2.60;98647.00;;;;5072267;28;20452;-59
2023/03/16 06:09:19;;;;;;;9.38;6.28;;;;;2.70;98640.00;;;;5073644;28;20040;-58
2023/03/16 06:11:45;;;;;;;8.30;6.07;;;;;2.80;98647.00;;;;5071137;28;20146;-59
2023/03/16 06:14:14;;;;;;;10.75;7.47;;;;;2.80;98648.00;;;;5071876;28;20048;-61
2023/03/16 06:16:41;;;;;;;10.43;6.55;;;;;2.90;98646.00;;;;5073524;28;20028;-58
2023/03/16 06:19:09;;;;;;;10.43;6.40;;;;;3.00;98638.00;;;;5071988;28;20049;-58
2023/03/16 06:21:36;;;;;;;32.80;22.15;;;;;3.00;98652.00;;;;5072559;28;20055;-57
2023/03/16 06:24:08;;;;;;;20.00;14.00;;;;;3.00;98637.00;;;;5071704;28;20047;-61
2023/03/16 06:26:35;;;;;;;13.20;8.77;;;;;3.10;98638.00;;;;5071331;28;20068;-61
2023/03/16 06:29:04;;;;;;;17.80;13.95;;;;;3.20;98634.00;;;;5071418;28;20052;-61
2023/03/16 06:31:33;;;;;;;16.25;11.48;;;;;3.20;98635.00;;;;5070765;28;20074;-60
2023/03/16 06:34:01;;;;;;;9.32;7.13;;;;;3.40;98640.00;;;;5071467;28;20118;-60
2023/03/16 06:36:29;;;;;;;9.20;6.70;;;;;3.60;98641.00;;;;5071398;28;20076;-60
2023/03/16 06:38:58;;;;;;;8.45;6.88;;;;;3.70;98640.00;;;;5055392;28;20040;-60
2023/03/16 06:41:31;;;;;;;9.68;7.15;;;;;3.70;98647.00;;;;5070855;28;20054;-61
2023/03/16 06:43:57;;;;;;;9.85;7.80;;;;;3.80;98651.00;;;;5070828;28;20068;-59
2023/03/16 06:46:24;;;;;;;8.43;6.93;;;;;3.90;98648.00;;;;5072486;28;20033;-59
2023/03/16 06:48:51;;;;;;;10.82;8.82;;;;;3.90;98652.00;;;;5071341;28;20075;-60
2023/03/16 06:51:18;;;;;;;11.82;7.30;;;;;3.90;98656.00;;;;5070600;28;20497;-59
2023/03/16 06:53:45;;;;;;;11.13;7.65;;;;;3.90;98645.00;;;;5071381;28;20571;-60
2023/03/16 06:56:13;;;;;;;11.60;7.88;;;;;4.00;98645.00;;;;5071443;28;20040;-59
2023/03/16 06:58:46;;;;;;;10.65;7.32;;;;;3.90;98645.00;;;;5071779;28;20066;-59
2023/03/16 07:01:14;;;;;;;10.65;7.85;;;;;3.90;98646.00;;;;5070693;28;20055;-59
2023/03/16 07:03:41;;;;;;;10.98;7.80;;;;;3.90;98640.00;;;;5072399;28;20449;-59
2023/03/16 07:06:28;;;;;;;10.98;7.50;;;;;4.00;98636.00;;;;5071829;28;20127;-59
2023/03/16 07:08:54;;;;;;;10.98;8.07;;;;;4.00;98638.00;;;;5071671;28;20143;-59
2023/03/16 07:11:22;;;;;;;11.35;7.30;;;;;4.10;98643.00;;;;5070465;28;20500;-63
2023/03/16 07:13:50;;;;;;;15.25;9.50;;;;;4.20;98641.00;;;;5070918;28;20049;-56
2023/03/16 07:16:18;;;;;;;12.77;7.90;;;;;4.20;98625.00;;;;5070842;28;20127;-57
2023/03/16 07:18:44;;;;;;;9.73;6.93;;;;;4.20;98628.00;;;;5070834;28;20447;-58
2023/03/16 07:21:14;;;;;;;9.73;6.80;;;;;4.30;98641.00;;;;5070453;28;20059;-57
2023/03/16 07:23:44;;;;;;;8.70;6.60;;;;;4.30;98631.00;;;;5072303;28;20082;-57
2023/03/16 07:26:13;;;;;;;9.98;7.45;;;;;4.40;98639.00;;;;5070468;28;20570;-58
2023/03/16 07:28:49;;;;;;;12.57;7.38;;;;;4.60;98631.00;;;;5070670;28;20048;-60
2023/03/16 07:31:16;;;;;;;8.55;7.18;;;;;4.80;98633.00;;;;5053403;28;20048;-57
2023/03/16 07:33:43;;;;;;;9.63;7.60;;;;;5.00;98633.00;;;;5071060;28;20048;-57
2023/03/16 07:36:15;;;;;;;10.38;6.07;;;;;5.20;98639.00;;;;5070664;28;20051;-58
2023/03/16 07:38:49;;;;;;;7.45;6.53;;;;;5.30;98631.00;;;;5055785;28;20098;-57
2023/03/16 07:41:16;;;;;;;10.30;6.95;;;;;5.50;98645.00;;;;5070142;28;20056;-58
2023/03/16 07:43:44;;;;;;;8.50;5.80;;;;;5.70;98640.00;;;;5070820;28;20053;-57
2023/03/16 07:46:14;;;;;;;7.20;6.18;;;;;5.70;98642.00;;;;5070450;28;20412;-61
2023/03/16 07:48:42;;;;;;;7.03;5.72;;;;;5.90;98649.00;;;;5072037;28;20060;-57
2023/03/16 07:51:12;;;;;;;8.48;5.63;;;;;6.00;98646.00;;;;5069835;28;20048;-59
2023/03/16 07:53:40;;;;;;;7.03;5.18;;;;;6.30;98659.00;;;;5070343;28;20512;-61
2023/03/16 07:59:35;;;;;;;13.18;5.80;;;;;6.50;98662.00;;;;5591415;23;20053;-61
2023/03/16 08:02:02;;;;;;;7.75;5.97;;;;;6.40;98664.00;;;;5012406;28;20057;-62
2023/03/16 08:04:30;;;;;;;17.40;10.77;;;;;6.30;98657.00;;;;5027596;28;20390;-62
2023/03/16 08:06:59;;;;;;;11.40;7.03;;;;;6.40;98648.00;;;;5011245;28;20247;-63
2023/03/16 08:09:40;;;;;;;7.47;5.80;;;;;6.50;98645.00;;;;5012262;28;20058;-62
2023/03/16 08:12:10;;;;;;;6.88;4.78;;;;;6.80;98645.00;;;;5013276;28;20069;-60
2023/03/16 08:14:37;;;;;;;5.15;4.57;;;;;7.00;98647.00;;;;5011810;28;20136;-59
2023/03/16 08:17:13;;;;;;;4.95;4.45;;;;;7.30;98642.00;;;;5013650;28;20041;-62
2023/03/16 08:19:41;;;;;;;10.07;5.18;;;;;7.40;98650.00;;;;5030143;28;20067;-60
2023/03/16 08:22:09;;;;;;;8.30;4.78;;;;;7.50;98641.00;;;;5030120;28;20061;-62
2023/03/16 08:24:39;;;;;;;11.35;8.95;;;;;7.70;98652.00;;;;5030770;28;20459;-62
2023/03/16 08:27:08;;;;;;;8.85;5.60;;;;;7.60;98649.00;;;;5047252;28;20076;-62
2023/03/16 08:29:37;;;;;;;6.57;4.97;;;;;7.60;98645.00;;;;5028590;28;20117;-62
2023/03/16 08:32:06;;;;;;;4.40;4.00;;;;;7.70;98644.00;;;;5037455;28;20501;-62
2023/03/16 08:34:38;;;;;;;5.47;4.20;;;;;7.80;98637.00;;;;5026003;28;20041;-62
2023/03/16 08:37:06;;;;;;;5.85;4.35;;;;;7.90;98639.00;;;;5011298;28;20041;-62
2023/03/16 08:39:34;;;;;;;8.20;5.28;;;;;8.00;98632.00;;;;5009903;28;20053;-62
2023/03/16 08:42:07;;;;;;;51.33;33.35;;;;;8.00;98629.00;;;;5011413;28;20523;-62
2023/03/16 08:44:40;;;;;;;15.95;10.55;;;;;8.10;98632.00;;;;5027479;28;20080;-61
2023/03/16 08:47:07;;;;;;;12.13;10.20;;;;;8.20;98646.00;;;;5027228;28;20092;-62
2023/03/16 08:49:34;;;;;;;6.65;4.60;;;;;8.50;98636.00;;;;5026218;28;20113;-61
2023/03/16 08:52:05;;;;;;;6.68;4.25;;;;;8.60;98644.00;;;;5011861;28;20111;-62
2023/03/16 08:54:32;;;;;;;6.53;5.50;;;;;8.80;98649.00;;;;5037431;28;20064;-57
2023/03/16 08:56:59;;;;;;;5.18;3.70;;;;;8.90;98651.00;;;;5016917;28;20065;-59
2023/03/16 08:59:25;;;;;;;7.35;4.20;;;;;8.80;98645.00;;;;5034121;28;20087;-58
2023/03/16 09:01:56;;;;;;;6.22;4.35;;;;;8.90;98643.00;;;;5034800;28;20409;-57
2023/03/16 09:04:22;;;;;;;3.42;3.08;;;;;9.00;98639.00;;;;5034604;28;20046;-60
2023/03/16 09:06:52;;;;;;;5.25;2.97;;;;;9.10;98646.00;;;;5034081;28;20042;-58
2023/03/16 09:09:35;;;;;;;3.33;2.50;;;;;9.20;98642.00;;;;5034376;28;20409;-61
2023/03/16 09:12:03;;;;;;;5.00;3.20;;;;;9.40;98644.00;;;;5034547;28;20119;-57
2023/03/16 09:14:29;;;;;;;4.72;2.70;;;;;9.60;98641.00;;;;5034811;28;20045;-56
2023/03/16 09:16:56;;;;;;;2.65;2.45;;;;;9.50;98623.00;;;;5017012;28;20120;-57
2023/03/16 09:19:23;;;;;;;3.90;2.42;;;;;9.50;98624.00;;;;5016228;28;20145;-61
2023/03/16 09:21:50;;;;;;;5.30;2.53;;;;;9.80;98632.00;;;;5034862;28;20412;-57
2023/03/16 09:24:16;;;;;;;4.53;3.00;;;;;9.90;98626.00;;;;5035735;28;20448;-58
2023/03/16 09:26:43;;;;;;;8.43;5.05;;;;;9.90;98634.00;;;;5035268;28;20087;-62
2023/03/16 09:29:10;;;;;;;7.65;4.45;;;;;10.10;98615.00;;;;5034050;28;20112;-57
2023/03/16 09:31:37;;;;;;;9.50;2.97;;;;;10.40;98618.00;;;;5034120;28;20052;-63
2023/03/16 09:34:04;;;;;;;5.72;3.67;;;;;10.70;98629.00;;;;5034227;28;20501;-58
2023/03/16 09:36:30;;;;;;;4.18;2.38;;;;;10.80;98621.00;;;;5034126;28;20049;-58
2023/03/16 09:38:56;;;;;;;1.45;1.17;;;;;10.90;98627.00;;;;5033291;28;20042;-57
2023/03/16 09:41:37;;;;;;;3.80;2.75;;;;;10.80;98619.00;;;;5016351;28;20489;-58
2023/03/16 09:44:33;;;;;;;2.03;1.33;;;;;11.00;98618.00;;;;5033858;28;20080;-57
2023/03/16 09:47:02;;;;;;;1.55;1.08;;;;;11.10;98620.00;;;;5033732;28;20041;-63
2023/03/16 09:49:35;;;;;;;1.17;1.05;;;;;11.30;98621.00;;;;5033172;28;20072;-58
2023/03/16 09:52:17;;;;;;;4.25;1.20;;;;;11.60;98617.00;;;;5033824;28;20112;-61
2023/03/16 09:54:58;;;;;;;2.78;1.80;;;;;11.70;98616.00;;;;5033695;28;20041;-55
2023/03/16 09:57:31;;;;;;;2.83;1.10;;;;;11.90;98615.00;;;;5033666;28;20068;-58
2023/03/16 10:00:26;;;;;;;3.70;1.10;;;;;12.10;98616.00;;;;5015453;28;20084;-57
2023/03/16 10:03:08;;;;;;;1.65;1.08;;;;;12.30;98624.00;;;;5031619;28;20053;-58
2023/03/16 10:05:37;;;;;;;2.97;1.05;;;;;12.30;98619.00;;;;5033936;28;20096;-58
2023/03/16 10:08:21;;;;;;;1.50;0.80;;;;;12.40;98625.00;;;;5033455;28;20048;-58
2023/03/16 10:11:09;;;;;;;1.98;1.20;;;;;12.60;98635.00;;;;5033156;28;20049;-58
2023/03/16 10:13:45;;;;;;;2.03;1.05;;;;;12.60;98637.00;;;;5015906;28;20493;-58
2023/03/16 10:16:31;;;;;;;1.73;1.10;;;;;12.70;98626.00;;;;5032157;28;20050;-58
2023/03/16 10:19:10;;;;;;;2.78;1.25;;;;;12.80;98626.00;;;;5031706;28;20503;-60
2023/03/16 10:21:39;;;;;;;1.77;1.20;;;;;12.90;98633.00;;;;5033320;28;20049;-60
2023/03/16 10:24:25;;;;;;;2.00;0.80;;;;;12.80;98616.00;;;;5033379;28;20420;-60
2023/03/16 10:26:58;;;;;;;3.85;1.65;;;;;12.80;98617.00;;;;5033085;28;20041;-60
2023/03/16 10:29:32;;;;;;;2.95;0.70;;;;;12.80;98610.00;;;;5032610;28;20042;-60
2023/03/16 10:32:10;;;;;;;5.15;1.10;;;;;12.90;98614.00;;;;5033145;28;20044;-60
2023/03/16 10:34:37;;;;;;;3.60;0.93;;;;;12.90;98630.00;;;;5033214;28;20053;-59
2023/03/16 10:37:04;;;;;;;2.53;1.00;;;;;13.00;98617.00;;;;5033102;28;20441;-60
2023/03/16 10:39:35;;;;;;;3.30;0.95;;;;;13.00;98619.00;;;;5030906;28;20053;-60
2023/03/16 10:42:02;;;;;;;1.33;0.82;;;;;12.80;98622.00;;;;5033027;28;20079;-60
2023/03/16 10:44:28;;;;;;;1.42;0.80;;;;;12.80;98614.00;;;;5032897;28;20489;-60
2023/03/16 10:47:04;;;;;;;2.72;1.17;;;;;12.90;98622.00;;;;5032533;28;20041;-61
2023/03/16 10:49:43;;;;;;;4.38;2.85;;;;;13.00;98613.00;;;;5032296;28;20049;-60
2023/03/16 10:52:21;;;;;;;1.88;1.27;;;;;13.20;98610.00;;;;5032987;28;20046;-60
2023/03/16 10:54:53;;;;;;;3.35;1.35;;;;;13.30;98605.00;;;;5033208;28;20108;-59
2023/03/16 10:57:29;;;;;;;1.20;1.08;;;;;13.30;98605.00;;;;5032770;28;20045;-62
2023/03/16 11:00:08;;;;;;;1.77;0.80;;;;;13.20;98607.00;;;;5014576;28;20060;-62
2023/03/16 11:02:35;;;;;;;2.10;1.35;;;;;13.10;98602.00;;;;5032821;28;20046;-57
2023/03/16 11:05:27;;;;;;;3.05;1.02;;;;;13.20;98597.00;;;;5032854;28;20042;-60
2023/03/16 11:07:53;;;;;;;1.60;1.15;;;;;13.20;98589.00;;;;5032571;28;20053;-60
2023/03/16 11:10:33;;;;;;;3.33;1.20;;;;;13.30;98593.00;;;;5031736;28;20188;-60
2023/03/16 11:13:08;;;;;;;2.58;1.20;;;;;13.20;98596.00;;;;5032461;28;20091;-60
2023/03/16 11:15:39;;;;;;;2.35;1.08;;;;;13.30;98595.00;;;;5032786;28;20041;-60
2023/03/16 11:18:28;;;;;;;2.63;1.15;;;;;13.40;98588.00;;;;5032540;28;20448;-60
2023/03/16 11:20:56;;;;;;;3.90;1.52;;;;;13.40;98587.00;;;;5032410;28;20111;-61
2023/03/16 11:23:33;;;;;;;1.25;0.93;;;;;13.50;98593.00;;;;5032407;28;20051;-60
2023/03/16 11:26:04;;;;;;;2.17;1.05;;;;;13.50;98588.00;;;;5032142;28;20401;-61
2023/03/16 11:28:37;;;;;;;2.60;1.08;;;;;13.60;98594.00;;;;5031587;28;20091;-60
2023/03/16 11:31:26;;;;;;;2.85;1.20;;;;;13.60;98580.00;;;;5031942;28;20051;-61
2023/03/16 11:33:54;;;;;;;1.00;0.90;;;;;13.70;98572.00;;;;5032266;28;20057;-59
2023/03/16 11:36:26;;;;;;;1.52;0.70;;;;;13.70;98580.00;;;;5014717;28;20045;-59
2023/03/16 11:39:11;;;;;;;2.42;1.55;;;;;14.00;98575.00;;;;5031488;28;20045;-60
2023/03/16 11:42:08;;;;;;;0.88;0.70;;;;;14.00;98574.00;;;;5032315;28;20048;-60
2023/03/16 11:44:37;;;;;;;3.10;1.10;;;;;14.10;98569.00;;;;5032067;28;20057;-60
2023/03/16 11:47:22;;;;;;;2.95;1.50;;;;;14.10;98564.00;;;;5031921;28;20056;-60
2023/03/16 11:50:27;;;;;;;3.20;1.50;;;;;14.30;98560.00;;;;5018780;28;20073;-62
2023/03/16 11:52:56;;;;;;;1.10;1.00;;;;;14.10;98554.00;;;;5020419;28;20048;-62
2023/03/16 11:55:32;;;;;;;2.58;1.10;;;;;14.00;98555.00;;;;5035097;28;20053;-59
2023/03/16 11:57:58;;;;;;;0.90;0.85;;;;;14.00;98561.00;;;;5032094;28;20038;-58
2023/03/16 12:00:46;;;;;;;2.88;0.90;;;;;14.20;98560.00;;;;5031492;28;20052;-57
2023/03/16 12:03:41;;;;;;;1.63;0.88;;;;;14.10;98551.00;;;;5031881;28;20054;-59
2023/03/16 12:06:07;;;;;;;;;;;;;14.30;98547.00;;;;5037125;28;20120;-62
2023/03/16 12:08:57;;;;;;;2.28;1.08;;;;;14.50;98545.00;;;;5003808;28;19921;-61
2023/03/16 12:11:41;;;;;;;1.50;0.90;;;;;14.50;98544.00;;;;5038074;28;20041;-60
2023/03/16 12:14:29;;;;;;;1.70;1.05;;;;;14.40;98546.00;;;;5020677;28;20053;-62
2023/03/16 12:17:26;;;;;;;4.30;1.45;;;;;14.40;98552.00;;;;5038267;28;20048;-63
2023/03/16 12:19:56;;;;;;;1.10;0.85;;;;;14.40;98547.00;;;;5034416;28;20194;-61
2023/03/16 12:22:28;;;;;;;1.52;0.90;;;;;14.20;98544.00;;;;5021208;28;20060;-61
2023/03/16 12:24:55;;;;;;;1.23;1.02;;;;;14.10;98534.00;;;;5019446;28;20515;-62
2023/03/16 12:27:25;;;;;;;2.35;1.10;;;;;14.30;98538.00;;;;5036575;28;20048;-62
2023/03/16 12:30:02;;;;;;;2.78;1.58;;;;;14.50;98524.00;;;;5036112;28;20045;-62
2023/03/16 12:32:41;;;;;;;2.58;1.40;;;;;14.50;98519.00;;;;5036797;28;20129;-62
2023/03/16 12:35:41;;;;;;;3.03;2.10;;;;;14.50;98513.00;;;;5036014;28;20053;-62
2023/03/16 12:38:21;;;;;;;1.20;1.05;;;;;14.60;98504.00;;;;5019236;28;20049;-61
2023/03/16 12:41:06;;;;;;;1.88;0.85;;;;;14.50;98498.00;;;;5036640;28;20041;-62
2023/03/16 12:44:00;;;;;;;1.67;1.10;;;;;14.60;98495.00;;;;5040832;28;20095;-62
2023/03/16 12:46:37;;;;;;;2.25;1.20;;;;;14.70;98487.00;;;;5022920;28;20083;-62
2023/03/16 12:49:06;;;;;;;2.63;1.10;;;;;14.80;98485.00;;;;5037886;28;20051;-63